Time;durP1;ratioP1;P1;durP2;ratioP2;P2;SDS_P1;SDS_P2;PMS_P1;PMS_P2;Temp;Humidity;BMP_temperature;BMP_pressure;BME280_temperature;BME280_humidity;BME280_pressure;Samples;Min_cycle;Max_cycle;Signal;HPM_P1;HPM_P2
2022/03/22 00:01:08;;;;;;;1.35;0.70;;;;;;;;;;20922270;28;20485;-64
2022/03/22 00:11:11;;;;;;;1.27;0.68;;;;;;;;;;20921319;28;20080;-65
2022/03/22 00:21:13;;;;;;;0.95;0.50;;;;;;;;;;20921411;28;20075;-66
2022/03/22 00:31:15;;;;;;;1.67;0.77;;;;;;;;;;20919035;28;20091;-67
2022/03/22 00:41:19;;;;;;;1.92;0.73;;;;;;;;;;20920415;28;20053;-65
2022/03/22 00:51:23;;;;;;;1.30;0.73;;;;;;;;;;20917641;28;20045;-66
2022/03/22 01:01:26;;;;;;;1.95;0.50;;;;;;;;;;20918729;28;20059;-65
2022/03/22 01:11:28;;;;;;;1.10;0.40;;;;;;;;;;20917762;28;20099;-60
2022/03/22 01:21:30;;;;;;;1.20;0.50;;;;;;;;;;20917617;28;20053;-65
2022/03/22 01:31:32;;;;;;;1.00;0.50;;;;;;;;;;20917099;28;20488;-65
2022/03/22 01:41:34;;;;;;;1.90;0.60;;;;;;;;;;20912822;28;20048;-60
2022/03/22 01:51:37;;;;;;;1.85;0.45;;;;;;;;;;20914273;28;20044;-62
2022/03/22 02:11:59;;;;;;;0.43;0.30;;;;;;;;;;20914146;28;20386;-65
2022/03/22 02:22:06;;;;;;;1.08;0.50;;;;;;;;;;20913274;28;20386;-63
2022/03/22 02:32:10;;;;;;;1.77;0.60;;;;;;;;;;20913685;28;20044;-64
2022/03/22 02:42:15;;;;;;;;;;;;;;;;;;20913901;28;20052;-65
2022/03/22 02:52:23;;;;;;;1.50;0.68;;;;;;;;;;20913601;28;19921;-61
2022/03/22 03:02:27;;;;;;;1.73;0.60;;;;;;;;;;20911425;28;20057;-59
2022/03/22 03:12:30;;;;;;;1.70;0.55;;;;;;;;;;20912031;28;20045;-63
2022/03/22 03:22:31;;;;;;;1.45;0.57;;;;;;;;;;20926347;28;20057;-64
2022/03/22 03:32:34;;;;;;;2.75;0.63;;;;;;;;;;20924876;28;20135;-62
2022/03/22 03:42:42;;;;;;;0.68;0.47;;;;;;;;;;20925063;28;20057;-61
2022/03/22 03:52:44;;;;;;;0.80;0.40;;;;;;;;;;20923062;28;20051;-62
2022/03/22 04:02:47;;;;;;;1.20;0.68;;;;;;;;;;20922767;28;20485;-61
2022/03/22 04:12:49;;;;;;;0.70;0.40;;;;;;;;;;20921475;28;20123;-60
2022/03/22 04:22:52;;;;;;;1.10;0.60;;;;;;;;;;20920272;28;20056;-62
2022/03/22 04:32:57;;;;;;;0.73;0.40;;;;;;;;;;20919948;28;20563;-60
2022/03/22 04:42:59;;;;;;;0.95;0.50;;;;;;;;;;20919530;28;20079;-60
2022/03/22 05:03:51;;;;;;;0.68;0.30;;;;;;;;;;20825997;28;20071;-60
2022/03/22 05:14:00;;;;;;;0.85;0.50;;;;;;;;;;20825434;28;20115;-59
2022/03/22 05:24:04;;;;;;;1.98;0.40;;;;;;;;;;20825138;28;20521;-60
2022/03/22 05:34:08;;;;;;;0.95;0.50;;;;;;;;;;20844207;28;20053;-60
2022/03/22 05:44:12;;;;;;;1.55;0.50;;;;;;;;;;20913048;28;20077;-61
2022/03/22 05:54:15;;;;;;;2.30;1.17;;;;;;;;;;20914570;28;20458;-61
2022/03/22 06:04:19;;;;;;;1.45;0.80;;;;;;;;;;20912633;28;20080;-60
2022/03/22 06:14:22;;;;;;;1.37;0.80;;;;;;;;;;20911935;28;20382;-59
2022/03/22 06:24:24;;;;;;;2.17;1.02;;;;;;;;;;20911591;28;20060;-60
2022/03/22 06:34:29;;;;;;;2.17;1.00;;;;;;;;;;20912013;28;20048;-61
2022/03/22 06:44:31;;;;;;;1.73;0.90;;;;;;;;;;20908696;28;20041;-61
2022/03/22 06:54:33;;;;;;;2.13;1.05;;;;;;;;;;20924668;28;20563;-62
2022/03/22 07:04:37;;;;;;;2.60;1.30;;;;;;;;;;20927606;28;20059;-63
2022/03/22 07:14:40;;;;;;;6.40;3.80;;;;;;;;;;20925317;28;20060;-64
2022/03/22 07:24:42;;;;;;;3.53;1.33;;;;;;;;;;20925272;28;20049;-64
2022/03/22 07:34:45;;;;;;;2.08;1.00;;;;;;;;;;20922311;28;20052;-58
2022/03/22 07:44:47;;;;;;;3.75;1.60;;;;;;;;;;20918148;28;20057;-58
2022/03/22 07:54:49;;;;;;;1.45;0.73;;;;;;;;;;20920945;28;20080;-62
2022/03/22 08:04:53;;;;;;;0.90;0.60;;;;;;;;;;20920797;28;20447;-65
2022/03/22 08:14:55;;;;;;;2.55;1.48;;;;;;;;;;20920514;28;20084;-58
2022/03/22 08:24:57;;;;;;;1.88;1.15;;;;;;;;;;20917887;28;20545;-62
2022/03/22 08:34:59;;;;;;;1.83;0.95;;;;;;;;;;20915309;28;20049;-59
2022/03/22 08:45:03;;;;;;;2.35;0.90;;;;;;;;;;20916502;28;20041;-55
2022/03/22 08:55:07;;;;;;;1.95;1.35;;;;;;;;;;20916156;28;20045;-55
2022/03/22 09:15:31;;;;;;;2.67;1.10;;;;;;;;;;20913408;28;20052;-55
2022/03/22 09:25:34;;;;;;;1.48;0.80;;;;;;;;;;20914781;28;20516;-58
2022/03/22 09:35:36;;;;;;;1.70;0.75;;;;;;;;;;20913258;28;20060;-63
2022/03/22 09:45:39;;;;;;;2.08;0.90;;;;;;;;;;20913270;28;20049;-63
2022/03/22 09:55:41;;;;;;;1.40;1.00;;;;;;;;;;20912957;28;20057;-64
2022/03/22 10:05:45;;;;;;;4.93;0.90;;;;;;;;;;20912266;28;20417;-63
2022/03/22 10:15:49;;;;;;;5.50;1.60;;;;;;;;;;20911953;28;20056;-63
2022/03/22 10:26:01;;;;;;;1.65;0.75;;;;;;;;;;20911508;28;20289;-62
2022/03/22 10:36:13;;;;;;;2.15;1.00;;;;;;;;;;20911955;28;20056;-65
2022/03/22 10:46:17;;;;;;;1.25;0.80;;;;;;;;;;20911521;28;20045;-64
2022/03/22 10:56:20;;;;;;;2.55;0.70;;;;;;;;;;20911095;28;20056;-61
2022/03/22 11:06:23;;;;;;;2.10;1.30;;;;;;;;;;20911380;28;20486;-57
2022/03/22 11:16:27;;;;;;;2.15;0.65;;;;;;;;;;20909908;28;20056;-56
2022/03/22 11:26:29;;;;;;;3.17;0.67;;;;;;;;;;20909307;28;20048;-59
2022/03/22 11:36:41;;;;;;;2.63;0.80;;;;;;;;;;20913439;28;20049;-59
2022/03/22 11:46:43;;;;;;;1.77;0.82;;;;;;;;;;20923561;28;20060;-64
2022/03/22 11:56:50;;;;;;;3.13;0.63;;;;;;;;;;20923382;28;20055;-57
2022/03/22 12:06:53;;;;;;;1.52;0.80;;;;;;;;;;20921429;28;20118;-60
2022/03/22 12:16:58;;;;;;;1.27;0.80;;;;;;;;;;20921205;28;20404;-66
2022/03/22 12:27:10;;;;;;;1.90;0.70;;;;;;;;;;20920752;28;20119;-58
2022/03/22 12:37:13;;;;;;;1.30;0.93;;;;;;;;;;20919211;28;20049;-60
2022/03/22 12:47:17;;;;;;;3.83;1.02;;;;;;;;;;20917304;28;20053;-65
2022/03/22 12:57:19;;;;;;;2.75;1.00;;;;;;;;;;20917790;28;20055;-59
2022/03/22 13:07:22;;;;;;;1.33;0.73;;;;;;;;;;20918306;28;20045;-72
2022/03/22 13:17:27;;;;;;;2.27;1.00;;;;;;;;;;20917739;28;20143;-60
2022/03/22 13:27:29;;;;;;;2.60;1.00;;;;;;;;;;20916502;28;20523;-62
2022/03/22 13:37:42;;;;;;;1.92;1.20;;;;;;;;;;20915503;28;20309;-61
2022/03/22 13:47:45;;;;;;;1.55;1.05;;;;;;;;;;20915264;28;20544;-59
2022/03/22 13:57:48;;;;;;;4.47;1.50;;;;;;;;;;20913579;28;20061;-67
2022/03/22 14:07:51;;;;;;;2.80;1.90;;;;;;;;;;20913649;28;20133;-62
2022/03/22 14:17:53;;;;;;;3.83;1.73;;;;;;;;;;20912642;28;20052;-65
2022/03/22 14:27:56;;;;;;;2.20;1.27;;;;;;;;;;20909980;28;20045;-61
2022/03/22 14:37:59;;;;;;;2.05;1.30;;;;;;;;;;20911803;28;20111;-59
2022/03/22 14:48:02;;;;;;;6.07;1.45;;;;;;;;;;20911622;28;20073;-63
2022/03/22 15:08:25;;;;;;;2.72;1.77;;;;;;;;;;20912085;28;20055;-62
2022/03/22 15:18:27;;;;;;;4.20;1.73;;;;;;;;;;20925815;28;20056;-68
2022/03/22 15:28:29;;;;;;;2.20;1.40;;;;;;;;;;20924974;28;20076;-70
2022/03/22 15:38:31;;;;;;;3.47;1.38;;;;;;;;;;20923701;28;20049;-71
2022/03/22 15:48:33;;;;;;;3.78;1.58;;;;;;;;;;20923411;28;20544;-70
2022/03/22 15:58:36;;;;;;;3.00;1.30;;;;;;;;;;20922199;28;20053;-69
2022/03/22 16:08:38;;;;;;;2.88;1.70;;;;;;;;;;20922821;28;20044;-59
2022/03/22 16:18:40;;;;;;;5.28;1.88;;;;;;;;;;20918986;28;20478;-51
2022/03/22 16:28:42;;;;;;;6.20;2.40;;;;;;;;;;20917762;28;20052;-67
2022/03/22 16:49:05;;;;;;;6.07;2.70;;;;;;;;;;20916003;28;20497;-53
2022/03/22 16:59:07;;;;;;;4.90;2.97;;;;;;;;;;20916456;28;20048;-57
2022/03/22 17:09:09;;;;;;;7.38;4.40;;;;;;;;;;20915602;28;20048;-55
2022/03/22 17:19:11;;;;;;;3.90;3.03;;;;;;;;;;20915540;28;20558;-62
2022/03/22 17:29:12;;;;;;;6.15;3.92;;;;;;;;;;20914951;28;20381;-58
2022/03/22 17:39:14;;;;;;;6.00;3.88;;;;;;;;;;20914563;28;20053;-57
2022/03/22 17:49:16;;;;;;;7.20;4.47;;;;;;;;;;20914736;28;20128;-57
2022/03/22 17:59:18;;;;;;;5.75;3.67;;;;;;;;;;20913617;28;20056;-54
2022/03/22 18:09:20;;;;;;;7.15;3.83;;;;;;;;;;20913156;28;20044;-57
2022/03/22 18:19:22;;;;;;;9.75;5.00;;;;;;;;;;20912634;28;20136;-56
2022/03/22 18:29:24;;;;;;;8.57;4.25;;;;;;;;;;20911734;28;20049;-57
2022/03/22 18:39:26;;;;;;;12.35;5.13;;;;;;;;;;20910608;28;20053;-58
2022/03/22 18:49:28;;;;;;;10.82;4.70;;;;;;;;;;20921987;28;20057;-56
2022/03/22 18:59:30;;;;;;;8.18;5.13;;;;;;;;;;20927323;28;20063;-61
2022/03/22 19:09:33;;;;;;;9.73;3.92;;;;;;;;;;20926163;28;20056;-59
2022/03/22 19:19:36;;;;;;;8.82;4.20;;;;;;;;;;20926532;28;20084;-58
2022/03/22 19:29:38;;;;;;;11.13;4.93;;;;;;;;;;20926081;28;20084;-55
2022/03/22 19:39:40;;;;;;;17.77;11.35;;;;;;;;;;20924141;28;20049;-57
2022/03/22 19:49:45;;;;;;;49.60;29.38;;;;;;;;;;20923512;28;20131;-58
2022/03/22 19:59:48;;;;;;;77.57;48.75;;;;;;;;;;20921754;28;20045;-57
2022/03/22 20:09:51;;;;;;;36.50;24.92;;;;;;;;;;20921913;28;20041;-56
2022/03/22 20:19:53;;;;;;;110.65;61.97;;;;;;;;;;20921466;28;20092;-57
2022/03/22 20:29:56;;;;;;;149.20;92.85;;;;;;;;;;20920652;28;20186;-58
2022/03/22 20:39:59;;;;;;;16.98;11.63;;;;;;;;;;20918861;28;20525;-60
2022/03/22 20:50:01;;;;;;;7.18;5.40;;;;;;;;;;20918687;28;20049;-60
2022/03/22 21:00:05;;;;;;;13.02;5.97;;;;;;;;;;20919093;28;20482;-61
2022/03/22 21:10:08;;;;;;;7.80;5.50;;;;;;;;;;20918322;28;20056;-60
2022/03/22 21:20:11;;;;;;;13.30;6.43;;;;;;;;;;20916599;28;20060;-62
2022/03/22 21:30:13;;;;;;;14.40;6.13;;;;;;;;;;20916502;28;20080;-60
2022/03/22 21:40:16;;;;;;;12.68;5.78;;;;;;;;;;20915669;28;20588;-61
2022/03/22 21:50:19;;;;;;;11.20;5.25;;;;;;;;;;20914651;28;20047;-60
2022/03/22 22:00:22;;;;;;;11.77;5.68;;;;;;;;;;20913617;28;20048;-60
2022/03/22 22:10:25;;;;;;;11.98;6.22;;;;;;;;;;20912919;28;20079;-59
2022/03/22 22:20:27;;;;;;;9.88;6.57;;;;;;;;;;20912834;28;20409;-61
2022/03/22 22:30:31;;;;;;;8.48;5.28;;;;;;;;;;20913212;28;20071;-59
2022/03/22 22:40:33;;;;;;;10.35;5.80;;;;;;;;;;20911721;28;20110;-62
2022/03/22 22:50:35;;;;;;;11.15;5.38;;;;;;;;;;20911748;28;20049;-61
2022/03/22 23:11:02;;;;;;;9.07;5.90;;;;;;;;;;20911353;28;20557;-59
2022/03/22 23:21:05;;;;;;;6.35;5.38;;;;;;;;;;20909909;28;20053;-62
2022/03/22 23:31:08;;;;;;;9.57;5.47;;;;;;;;;;20913577;28;20048;-60
2022/03/22 23:41:10;;;;;;;11.13;5.82;;;;;;;;;;20925601;28;20053;-60
2022/03/22 23:51:15;;;;;;;9.13;6.00;;;;;;;;;;20924186;28;20519;-60
